Terminal Aerodrome Forecast
Issued by NWS Bismarck, ND

Home | Current Version | Previous Version | Graphics & Text | Print | Product List | Glossary On
Versions: 1 2 3 4 5 6 7 8 9 10 11 12 13 14 15 16 17 18 19 20 21
000
FTUS43 KBIS 291000 AAA
TAFBIS
TAF AMD
KBIS 291001Z 2910/3006 22005KT P6SM SKC
      TEMPO 2910/2914 3SM BR
     FM291400 14006KT P6SM SCT130
     FM291600 18010KT P6SM BKN100
     FM292300 21009KT P6SM BKN035 BKN070=

USA.gov is the U.S. government's official web portal to all federal, state and local government web resources and services.